»·PEaware :: N4657 L35-KSBA

N4657 :: L35-KSBA

FLIGHT INFORMATION

Flight Status: Arrived
Operator: Privately registered:
United States
More flights under this callsign
Pilot: Daniel P. (20187)
Aircraft: PILATUS PC-12 EAGLE
(PC12)
More flights by this aircraft type
Origin: L35 Big Bear City
United States
Destination: KSBA Santa Barbara Mun
United States
More flights between these airports :: More routes between these airports
Route: L70 LHS
File this flight plan on PilotEdge
Remarks:
Altitude:
(Current/Filed)
11,500ft
Speed:
(Current/Filed)
200kts
Departed: 31-Aug-18 12:35 PM
Arrived: 31-Aug-18 01:22 PM
Distance/Time
Traveled:
148nm/0:46
Distance/Time
To Go:
Arrived

Flight Plot

Page will automatically refresh every two minutes.

Flight plan parsing failed; only flown route is shown


Map Options




Map Legend


Flown Route
Filed Route
Departure Airport
Arrival Airport
Navaid (VOR, NDB)
Fix

Horizontal Profiles

Position Reports

Time Latitude Longitude Heading Altitude Ground
Speed
31-Aug-18 12:02 34.262192 -116.853979 86 6752ft 0kts
31-Aug-18 12:03 34.262192 -116.853979 86 6752ft 0kts
31-Aug-18 12:04 34.262192 -116.853979 86 6752ft 0kts
31-Aug-18 12:05 34.262192 -116.853979 86 6752ft 0kts
31-Aug-18 12:06 34.262192 -116.853979 86 6752ft 0kts
31-Aug-18 12:07 34.262192 -116.853979 86 6752ft 0kts
31-Aug-18 12:08 34.262192 -116.853979 86 6752ft 0kts
31-Aug-18 12:09 34.262192 -116.853979 86 6752ft 0kts
31-Aug-18 12:10 34.262192 -116.853979 86 6752ft 0kts
31-Aug-18 12:11 34.262192 -116.853979 86 6752ft 0kts
31-Aug-18 12:12 34.262192 -116.853979 86 6752ft 0kts
31-Aug-18 12:13 34.262192 -116.853979 86 6752ft 0kts
31-Aug-18 12:14 34.262192 -116.853979 86 6752ft 0kts
31-Aug-18 12:15 34.262192 -116.853979 86 6752ft 0kts
31-Aug-18 12:16 34.262192 -116.853979 86 6752ft 0kts
31-Aug-18 12:17 34.262192 -116.853979 86 6752ft 0kts
31-Aug-18 12:18 34.262192 -116.853979 86 6752ft 0kts
31-Aug-18 12:19 34.262192 -116.853979 86 6752ft 0kts
31-Aug-18 12:20 34.262192 -116.853978 86 6752ft 0kts
31-Aug-18 12:21 34.262192 -116.853978 86 6752ft 0kts
31-Aug-18 12:22 34.262192 -116.853978 86 6752ft 0kts
31-Aug-18 12:23 34.262192 -116.853978 86 6752ft 0kts
31-Aug-18 12:24 34.262192 -116.853978 86 6752ft 0kts
31-Aug-18 12:25 34.262192 -116.853978 86 6752ft 0kts
31-Aug-18 12:26 34.262192 -116.853978 86 6752ft 0kts
31-Aug-18 12:27 34.262192 -116.853978 86 6752ft 0kts
31-Aug-18 12:28 34.262192 -116.853978 86 6752ft 0kts
31-Aug-18 12:29 34.262192 -116.853978 86 6752ft 0kts
31-Aug-18 12:30 34.262192 -116.853978 86 6752ft 0kts
31-Aug-18 12:32 34.262192 -116.853978 86 6752ft 0kts
31-Aug-18 12:33 34.262715 -116.853624 357 6752ft 6kts
31-Aug-18 12:34 34.263267 -116.851054 90 6752ft 11kts
31-Aug-18 12:35 34.263274 -116.846924 90 6752ft 9kts
31-Aug-18 12:36 34.263427 -116.846442 15 6752ft 0kts
31-Aug-18 12:37 34.263791 -116.857832 266 6870ft 118kts
31-Aug-18 12:38 34.268594 -116.906671 283 9147ft 164kts
31-Aug-18 12:39 34.280598 -116.966047 280 10769ft 194kts
31-Aug-18 12:40 34.291899 -117.030718 279 12247ft 201kts
31-Aug-18 12:41 34.304148 -117.102744 280 12535ft 234kts
31-Aug-18 12:42 34.317250 -117.179868 280 12509ft 233kts
31-Aug-18 12:43 34.330129 -117.256544 280 12513ft 233kts
31-Aug-18 12:43 34.340811 -117.320442 280 12453ft 234kts
31-Aug-18 12:45 34.355779 -117.410339 280 12458ft 233kts
31-Aug-18 12:45 34.366403 -117.474422 280 12463ft 233kts
31-Aug-18 12:46 34.379117 -117.551385 280 12467ft 233kts
31-Aug-18 12:48 34.393873 -117.641111 280 12470ft 233kts
31-Aug-18 12:48 34.404325 -117.704942 280 12475ft 233kts
31-Aug-18 12:49 34.416978 -117.781946 280 12475ft 233kts
31-Aug-18 12:50 34.429512 -117.859053 280 12472ft 234kts
31-Aug-18 12:51 34.442002 -117.936236 280 12457ft 234kts
31-Aug-18 12:52 34.454470 -118.013609 280 12443ft 234kts
31-Aug-18 12:53 34.466917 -118.091183 280 12431ft 234kts
31-Aug-18 12:54 34.479209 -118.168114 280 12437ft 234kts
31-Aug-18 12:55 34.491504 -118.245390 280 12442ft 233kts
31-Aug-18 12:56 34.506565 -118.321288 305 12444ft 236kts
31-Aug-18 12:57 34.549031 -118.382179 307 12445ft 236kts
31-Aug-18 12:58 34.591111 -118.443303 307 12458ft 236kts
31-Aug-18 12:59 34.633066 -118.504352 307 12495ft 235kts
31-Aug-18 13:00 34.674555 -118.564984 304 12553ft 234kts
31-Aug-18 13:01 34.670026 -118.641604 257 12463ft 234kts
31-Aug-18 13:02 34.655208 -118.716745 256 12475ft 233kts
31-Aug-18 13:03 34.640031 -118.793111 256 12264ft 233kts
31-Aug-18 13:04 34.624728 -118.869591 257 11833ft 233kts
31-Aug-18 13:05 34.609323 -118.946005 258 11405ft 232kts
31-Aug-18 13:06 34.594070 -119.021913 258 10981ft 232kts
31-Aug-18 13:07 34.578877 -119.097508 258 10554ft 227kts
31-Aug-18 13:08 34.563925 -119.171465 258 10117ft 224kts
31-Aug-18 13:09 34.549431 -119.242983 258 9457ft 210kts
31-Aug-18 13:10 34.536291 -119.307881 257 8409ft 199kts
31-Aug-18 13:11 34.523208 -119.369533 249 7337ft 181kts
31-Aug-18 13:12 34.497600 -119.420547 234 6328ft 173kts
31-Aug-18 13:13 34.465999 -119.456521 212 6292ft 157kts
31-Aug-18 13:14 34.427719 -119.481955 219 5585ft 158kts
31-Aug-18 13:15 34.420513 -119.529977 266 4655ft 143kts
31-Aug-18 13:16 34.434191 -119.572999 298 3687ft 143kts
31-Aug-18 13:17 34.430357 -119.615189 238 2712ft 134kts
31-Aug-18 13:18 34.408586 -119.661001 237 2153ft 175kts
31-Aug-18 13:19 34.408484 -119.720618 283 1711ft 187kts
31-Aug-18 13:20 34.421468 -119.769138 285 1389ft 109kts
31-Aug-18 13:21 34.428778 -119.804083 265 741ft 87kts
31-Aug-18 13:22 34.427933 -119.833924 263 45ft 85kts
31-Aug-18 13:23 34.428225 -119.846110 58 14ft 3kts
31-Aug-18 13:24 34.428482 -119.845477 62 14ft 8kts
31-Aug-18 13:25 34.429594 -119.842664 70 14ft 6kts
31-Aug-18 13:26 34.430792 -119.839394 76 14ft 14kts
31-Aug-18 13:31 34.422650 -119.835588 340 10ft 0kts
31-Aug-18 13:32 34.422650 -119.835588 340 10ft 0kts
31-Aug-18 13:33 34.422650 -119.835588 340 10ft 0kts
31-Aug-18 13:34 34.422650 -119.835588 340 10ft 0kts
31-Aug-18 13:35 34.422650 -119.835588 340 10ft 0kts
31-Aug-18 13:36 34.422650 -119.835588 340 10ft 0kts
31-Aug-18 13:37 34.422650 -119.835588 340 10ft 0kts

Navigation Log

Ident Type
Flight plan parsing failed, navigation log unavailable